Time;durP1;ratioP1;P1;durP2;ratioP2;P2;SDS_P1;SDS_P2;PMS_P1;PMS_P2;Temp;Humidity;BMP_temperature;BMP_pressure;BME280_temperature;BME280_humidity;BME280_pressure;Samples;Min_cycle;Max_cycle;Signal;HPM_P1;HPM_P2
2023/12/13 00:00:26;;;;;;;10.85;1.35;;;;;;;16.06;52.94;99473.72;5055355;28;20036;-61
2023/12/13 00:02:52;;;;;;;4.45;0.52;;;;;;;16.10;52.84;99475.00;5055430;28;20173;-61
2023/12/13 00:05:17;;;;;;;2.65;0.60;;;;;;;16.13;52.03;99482.72;5073276;28;20473;-62
2023/12/13 00:07:42;;;;;;;2.45;0.60;;;;;;;16.16;52.28;99472.31;5073397;28;20025;-61
2023/12/13 00:10:08;;;;;;;1.33;0.55;;;;;;;16.18;51.84;99477.53;5073414;28;20051;-61
2023/12/13 00:12:34;;;;;;;2.08;0.85;;;;;;;16.19;53.03;99465.72;5038507;28;20028;-61
2023/12/13 00:14:59;;;;;;;5.00;0.80;;;;;;;16.19;52.71;99468.41;5038447;28;20050;-61
2023/12/13 00:17:24;;;;;;;5.05;1.02;;;;;;;16.20;53.15;99464.66;5038474;28;20391;-61
2023/12/13 00:19:50;;;;;;;4.78;0.90;;;;;;;16.20;52.00;99459.25;5072890;28;20107;-61
2023/12/13 00:22:15;;;;;;;2.83;1.20;;;;;;;16.21;52.15;99458.22;5055132;28;20491;-61
2023/12/13 00:24:40;;;;;;;3.95;0.60;;;;;;;16.22;52.64;99462.59;5038223;28;20056;-61
2023/12/13 00:27:06;;;;;;;3.97;0.75;;;;;;;16.19;52.82;99446.81;5054762;28;20033;-61
2023/12/13 00:29:31;;;;;;;5.50;0.95;;;;;;;16.16;52.60;99452.59;5054942;28;20540;-61
2023/12/13 00:31:57;;;;;;;7.47;1.27;;;;;;;16.16;53.29;99449.91;5054958;28;20396;-61
2023/12/13 00:34:22;;;;;;;1.73;0.88;;;;;;;16.14;51.61;99451.94;5054755;28;20077;-61
2023/12/13 00:36:48;;;;;;;6.03;0.75;;;;;;;16.11;52.86;99455.03;5055069;28;20040;-61
2023/12/13 00:39:15;;;;;;;2.65;0.85;;;;;;;16.11;52.92;99452.34;5055397;28;20036;-61
2023/12/13 00:41:41;;;;;;;17.25;1.90;;;;;;;16.07;52.36;99446.53;5039339;28;20028;-61
2023/12/13 00:44:06;;;;;;;2.85;1.17;;;;;;;16.05;53.51;99447.75;5073346;28;20040;-61
2023/12/13 00:46:31;;;;;;;7.60;0.90;;;;;;;16.01;53.28;99446.47;5072867;28;20043;-61
2023/12/13 00:48:57;;;;;;;6.35;0.75;;;;;;;16.02;52.42;99442.75;5072174;28;20535;-61
2023/12/13 00:51:22;;;;;;;3.22;0.80;;;;;;;16.03;52.17;99445.22;5054434;28;20052;-61
2023/12/13 00:53:49;;;;;;;8.75;0.90;;;;;;;16.01;52.32;99435.66;5072591;28;20108;-61
2023/12/13 00:56:15;;;;;;;3.60;2.15;;;;;;;16.01;53.01;99447.31;5072666;28;20140;-61
2023/12/13 00:58:40;;;;;;;3.75;0.75;;;;;;;16.02;52.83;99448.16;5054680;28;20488;-61
2023/12/13 01:01:06;;;;;;;6.30;1.65;;;;;;;16.01;52.89;99446.47;5037937;28;20171;-61
2023/12/13 01:03:32;;;;;;;2.67;0.80;;;;;;;16.02;52.54;99448.97;5054372;28;20036;-61
2023/12/13 01:05:57;;;;;;;7.22;1.13;;;;;;;16.02;52.21;99442.75;5054703;28;20149;-61
2023/12/13 01:08:22;;;;;;;3.63;0.50;;;;;;;16.03;52.90;99447.09;5053393;28;20040;-61
2023/12/13 01:10:48;;;;;;;4.90;0.77;;;;;;;16.05;52.56;99442.34;5037624;28;20097;-61
2023/12/13 01:13:13;;;;;;;2.00;0.85;;;;;;;16.05;51.77;99447.75;5037946;28;20040;-61
2023/12/13 01:15:39;;;;;;;3.58;0.50;;;;;;;16.07;52.36;99451.06;5072669;28;20021;-61
2023/12/13 01:18:04;;;;;;;7.10;0.80;;;;;;;16.11;52.95;99447.78;5054676;28;20425;-62
2023/12/13 01:20:29;;;;;;;3.17;1.45;;;;;;;16.10;51.92;99445.28;5072403;28;20247;-61
2023/12/13 01:22:55;;;;;;;8.43;1.20;;;;;;;16.12;52.63;99448.59;5072084;28;20044;-61
2023/12/13 01:25:21;;;;;;;2.38;0.82;;;;;;;16.12;52.52;99441.34;5075411;28;20499;-62
2023/12/13 01:27:46;;;;;;;4.68;0.68;;;;;;;16.13;51.69;99444.88;5076051;28;20158;-61
2023/12/13 01:30:11;;;;;;;8.40;1.08;;;;;;;16.12;52.02;99443.22;5041482;28;20400;-61
2023/12/13 01:32:37;;;;;;;1.55;0.75;;;;;;;16.11;53.51;99441.53;5041411;28;20404;-61
2023/12/13 01:35:03;;;;;;;4.65;0.98;;;;;;;16.12;52.57;99440.50;5074684;28;20036;-62
2023/12/13 01:37:30;;;;;;;2.55;1.25;;;;;;;16.13;52.77;99450.28;5061579;28;20025;-61
2023/12/13 01:39:56;;;;;;;5.20;1.98;;;;;;;16.13;52.71;99439.47;5041358;28;20032;-61
2023/12/13 01:42:23;;;;;;;5.38;0.95;;;;;;;16.12;52.62;99448.59;5075843;28;20037;-61
2023/12/13 01:44:49;;;;;;;10.00;1.08;;;;;;;16.09;53.61;99449.00;5057951;28;20068;-61
2023/12/13 01:47:14;;;;;;;3.65;0.80;;;;;;;16.08;52.25;99452.75;5057831;28;20472;-62
2023/12/13 01:49:39;;;;;;;7.43;1.52;;;;;;;16.07;52.80;99446.53;5056404;28;20067;-61
2023/12/13 01:52:07;;;;;;;4.05;1.10;;;;;;;16.07;52.91;99449.22;5041055;28;20044;-61
2023/12/13 01:54:33;;;;;;;5.00;1.30;;;;;;;16.07;52.93;99440.28;5024596;28;20056;-61
2023/12/13 01:56:59;;;;;;;4.72;0.80;;;;;;;16.06;53.08;99438.59;5057271;28;20044;-61
2023/12/13 01:59:28;;;;;;;3.75;0.95;;;;;;;16.08;52.26;99445.47;5057880;28;20029;-61
2023/12/13 02:01:54;;;;;;;3.53;1.08;;;;;;;16.10;52.88;99446.13;5057521;28;20040;-61
2023/12/13 02:04:20;;;;;;;9.50;1.17;;;;;;;16.10;52.72;99446.13;5040958;28;20067;-61
2023/12/13 02:06:46;;;;;;;2.15;1.00;;;;;;;16.11;52.77;99439.66;5057529;28;20044;-61
2023/12/13 02:09:11;;;;;;;8.50;1.15;;;;;;;16.17;52.67;99438.03;5075220;28;20029;-61
2023/12/13 02:11:37;;;;;;;5.75;1.48;;;;;;;16.17;52.42;99440.75;5075218;28;20090;-61
2023/12/13 02:14:04;;;;;;;7.03;1.27;;;;;;;16.18;53.25;99440.56;5075231;28;20520;-62
2023/12/13 02:16:32;;;;;;;5.20;1.10;;;;;;;16.20;53.15;99429.53;5040712;28;20052;-61
2023/12/13 02:18:57;;;;;;;13.45;2.10;;;;;;;16.22;52.38;99440.97;5057624;28;20500;-62
2023/12/13 02:21:24;;;;;;;5.35;0.95;;;;;;;16.20;52.74;99440.34;5057504;28;20055;-62
2023/12/13 02:23:52;;;;;;;10.60;1.25;;;;;;;16.21;53.08;99436.63;5075008;28;20565;-62
2023/12/13 02:26:17;;;;;;;5.53;1.77;;;;;;;16.22;52.61;99432.88;5075318;28;20039;-61
2023/12/13 02:28:42;;;;;;;7.03;1.02;;;;;;;16.21;53.16;99426.66;5056863;28;20033;-61
2023/12/13 02:31:08;;;;;;;8.23;1.02;;;;;;;16.22;53.03;99432.88;5057097;28;20149;-61
2023/12/13 02:33:34;;;;;;;13.10;2.25;;;;;;;16.19;53.67;99428.69;5056959;28;20040;-61
2023/12/13 02:36:03;;;;;;;6.82;1.75;;;;;;;16.23;52.99;99429.13;5055749;28;20032;-61
2023/12/13 02:38:29;;;;;;;6.65;1.23;;;;;;;16.25;53.01;99427.06;5057170;28;20029;-61
2023/12/13 02:40:54;;;;;;;13.18;1.80;;;;;;;16.26;53.41;99429.59;5040415;28;20039;-61
2023/12/13 02:43:19;;;;;;;6.70;1.20;;;;;;;16.29;53.86;99417.53;5056909;28;20377;-61
2023/12/13 02:45:45;;;;;;;9.32;1.27;;;;;;;16.29;53.14;99428.34;5074485;28;20167;-62
2023/12/13 02:48:10;;;;;;;3.53;0.90;;;;;;;16.28;53.11;99423.97;5056549;28;20064;-61
2023/12/13 02:50:38;;;;;;;7.25;1.13;;;;;;;16.26;52.90;99426.03;5074226;28;20052;-61
2023/12/13 02:53:04;;;;;;;2.83;0.82;;;;;;;16.27;53.30;99420.41;5056955;28;20040;-61
2023/12/13 02:55:30;;;;;;;8.63;1.23;;;;;;;16.28;53.10;99415.84;5074136;28;20070;-61
2023/12/13 02:57:55;;;;;;;5.95;0.90;;;;;;;16.31;53.42;99412.75;5074192;28;20032;-61
2023/12/13 03:00:21;;;;;;;7.10;1.58;;;;;;;16.32;53.86;99419.84;5056214;28;20043;-61
2023/12/13 03:02:46;;;;;;;4.97;1.35;;;;;;;16.33;52.78;99417.97;5056154;28;20129;-61
2023/12/13 03:05:12;;;;;;;6.40;1.75;;;;;;;16.33;52.75;99418.81;5074231;28;20032;-61
2023/12/13 03:07:41;;;;;;;3.33;1.20;;;;;;;16.35;52.96;99410.50;5056333;28;20028;-61
2023/12/13 03:10:07;;;;;;;3.60;1.20;;;;;;;16.37;52.43;99413.81;5074438;28;20124;-61
2023/12/13 03:12:32;;;;;;;5.55;1.48;;;;;;;16.37;53.32;99414.66;5056148;28;20040;-62
2023/12/13 03:14:57;;;;;;;9.98;1.20;;;;;;;16.38;52.98;99405.53;5056096;28;20037;-61
2023/12/13 03:17:23;;;;;;;4.97;1.15;;;;;;;16.41;52.63;99399.72;5039427;28;20500;-61
2023/12/13 03:19:48;;;;;;;6.88;1.30;;;;;;;16.40;53.63;99414.25;5055981;28;20033;-61
2023/12/13 03:22:13;;;;;;;5.60;1.00;;;;;;;16.36;53.22;99398.66;5073779;28;20036;-61
2023/12/13 03:24:39;;;;;;;7.10;1.38;;;;;;;16.35;53.79;99405.94;5056068;28;20045;-61
2023/12/13 03:27:04;;;;;;;4.82;1.55;;;;;;;16.36;53.27;99402.16;5073656;28;20028;-61
2023/12/13 03:29:30;;;;;;;8.82;1.25;;;;;;;16.34;53.10;99404.25;5073659;28;20112;-61
2023/12/13 03:31:56;;;;;;;11.63;1.50;;;;;;;16.33;53.79;99403.41;5055560;28;20064;-61
2023/12/13 03:34:22;;;;;;;6.03;1.20;;;;;;;16.36;53.90;99401.38;5063047;28;20140;-61
2023/12/13 03:36:47;;;;;;;6.47;1.20;;;;;;;16.37;53.56;99398.44;5055674;28;20540;-61
2023/12/13 03:39:13;;;;;;;6.13;2.40;;;;;;;16.38;53.13;99400.13;5073679;28;20039;-61
2023/12/13 03:41:38;;;;;;;12.40;2.03;;;;;;;16.36;53.62;99388.66;5055637;28;20039;-61
2023/12/13 03:44:04;;;;;;;13.60;1.77;;;;;;;16.37;53.56;99398.44;5055486;28;20031;-61
2023/12/13 03:46:29;;;;;;;7.82;1.25;;;;;;;16.36;53.69;99396.75;5055211;28;20033;-61
2023/12/13 03:48:54;;;;;;;10.00;1.45;;;;;;;16.35;53.57;99394.28;5072949;28;20041;-62
2023/12/13 03:51:20;;;;;;;9.18;1.52;;;;;;;16.32;54.29;99390.13;5055446;28;20037;-61
2023/12/13 03:53:46;;;;;;;7.05;2.55;;;;;;;16.28;53.42;99386.13;5055500;28;20036;-61
2023/12/13 03:56:12;;;;;;;4.45;1.50;;;;;;;16.30;53.49;99386.78;5055344;28;20059;-61
2023/12/13 03:58:38;;;;;;;11.15;1.98;;;;;;;16.33;53.01;99391.78;5055318;28;20033;-61
2023/12/13 04:01:04;;;;;;;6.85;1.83;;;;;;;16.35;53.52;99391.56;5038644;28;20037;-61
2023/12/13 04:03:29;;;;;;;4.70;1.23;;;;;;;16.34;53.34;99388.03;5055184;28;20036;-61
2023/12/13 04:05:56;;;;;;;9.45;1.33;;;;;;;16.35;53.70;99389.72;5055216;28;20039;-61
2023/12/13 04:08:22;;;;;;;7.05;1.83;;;;;;;16.36;53.00;99387.84;5073017;28;20048;-61
2023/12/13 04:10:47;;;;;;;7.22;1.73;;;;;;;16.37;52.94;99393.03;5072992;28;20059;-61
2023/12/13 04:13:13;;;;;;;8.68;1.88;;;;;;;16.35;54.00;99388.88;5072735;28;20040;-61
2023/12/13 04:15:39;;;;;;;2.67;0.98;;;;;;;16.37;54.10;99392.19;5071951;28;20511;-61
2023/12/13 04:18:04;;;;;;;4.97;1.98;;;;;;;16.36;54.44;99385.97;5055052;28;20504;-61
2023/12/13 04:20:30;;;;;;;8.63;1.40;;;;;;;16.33;53.42;99377.44;5054816;28;20043;-61
2023/12/13 04:22:55;;;;;;;10.65;2.03;;;;;;;16.36;53.90;99387.84;5072919;28;20047;-61
2023/12/13 04:25:21;;;;;;;9.05;1.50;;;;;;;16.36;53.28;99385.97;5038401;28;20381;-61
2023/12/13 04:27:48;;;;;;;6.60;1.52;;;;;;;16.38;53.77;99381.22;5055070;28;20032;-61
2023/12/13 04:30:14;;;;;;;9.82;2.15;;;;;;;16.39;53.03;99382.03;5073258;28;20193;-61
2023/12/13 04:32:39;;;;;;;12.15;1.80;;;;;;;16.37;53.22;99379.53;5071809;28;20041;-61
2023/12/13 04:35:06;;;;;;;3.53;1.25;;;;;;;16.35;53.83;99380.75;5072969;28;20500;-61
2023/12/13 04:37:31;;;;;;;3.95;1.17;;;;;;;16.36;53.30;99375.16;5074211;28;20043;-66
2023/12/13 04:39:58;;;;;;;6.00;1.23;;;;;;;16.33;53.50;99370.97;5072516;28;20455;-62
2023/12/13 04:42:23;;;;;;;8.13;2.00;;;;;;;16.34;53.28;99371.81;5072915;28;20035;-61
2023/12/13 04:44:49;;;;;;;7.85;2.13;;;;;;;16.32;53.10;99363.09;5055084;28;20024;-61
2023/12/13 04:47:16;;;;;;;11.32;1.23;;;;;;;16.30;53.47;99359.75;5071590;28;20060;-61
2023/12/13 04:49:43;;;;;;;10.50;1.45;;;;;;;16.30;53.76;99375.97;5070338;28;20580;-61
2023/12/13 04:52:08;;;;;;;12.98;1.50;;;;;;;16.25;53.24;99373.03;5072640;28;20111;-61
2023/12/13 04:54:35;;;;;;;6.22;1.40;;;;;;;16.24;52.89;99371.38;5038199;28;20039;-61
2023/12/13 04:57:01;;;;;;;5.07;1.35;;;;;;;16.22;53.26;99357.22;5038399;28;20040;-61
2023/12/13 04:59:26;;;;;;;9.35;1.23;;;;;;;16.23;54.00;99358.88;5073999;28;20029;-61
2023/12/13 05:01:52;;;;;;;8.23;1.85;;;;;;;16.27;53.15;99365.56;5075534;28;20032;-61
2023/12/13 05:04:17;;;;;;;5.60;1.17;;;;;;;16.08;53.28;99328.50;5076444;28;20032;-61
2023/12/13 05:06:42;;;;;;;9.93;1.77;;;;;;;16.25;54.39;99364.91;5058639;28;20124;-61
2023/12/13 05:09:08;;;;;;;9.10;1.27;;;;;;;16.24;53.53;99365.97;5076385;28;20067;-61
2023/12/13 05:11:33;;;;;;;4.93;1.45;;;;;;;16.22;53.66;99362.63;5058463;28;20404;-61
2023/12/13 05:13:59;;;;;;;4.90;1.10;;;;;;;16.23;53.92;99364.28;5058406;28;20036;-61
2023/12/13 05:16:24;;;;;;;6.32;1.02;;;;;;;16.23;54.06;99353.47;5076120;28;20385;-61
2023/12/13 05:18:50;;;;;;;7.97;2.10;;;;;;;16.22;54.07;99359.91;5058227;28;20082;-61
2023/12/13 05:21:15;;;;;;;6.13;1.08;;;;;;;16.20;53.80;99353.88;5075485;28;20037;-61
2023/12/13 05:23:40;;;;;;;12.70;2.35;;;;;;;16.17;53.48;99356.97;5041648;28;20028;-61
2023/12/13 05:26:06;;;;;;;6.95;1.60;;;;;;;16.15;53.69;99345.56;5057705;28;20056;-61
2023/12/13 05:28:31;;;;;;;5.30;1.90;;;;;;;16.11;53.44;99344.28;5058114;28;20040;-61
2023/12/13 05:30:56;;;;;;;7.45;1.35;;;;;;;16.08;53.17;99333.91;5057931;28;20496;-61
2023/12/13 05:33:22;;;;;;;4.43;1.20;;;;;;;16.07;53.38;99348.44;5075849;28;20055;-61
2023/12/13 05:35:47;;;;;;;8.30;1.75;;;;;;;16.03;53.33;99337.19;5075919;28;20031;-61
2023/12/13 05:38:12;;;;;;;10.65;1.80;;;;;;;16.05;54.29;99335.09;5041114;28;20036;-61
2023/12/13 05:40:38;;;;;;;7.53;1.38;;;;;;;16.03;54.30;99342.59;5075596;28;20496;-61
2023/12/13 05:43:04;;;;;;;10.45;1.42;;;;;;;16.04;53.11;99338.03;5075736;28;20079;-61
2023/12/13 05:45:29;;;;;;;6.13;1.27;;;;;;;16.07;54.65;99343.03;5041145;28;20059;-61
2023/12/13 05:47:54;;;;;;;7.65;1.42;;;;;;;16.05;53.95;99339.69;5057748;28;20522;-61
2023/12/13 05:50:20;;;;;;;2.08;1.08;;;;;;;16.07;53.50;99340.31;5057535;28;20446;-61
2023/12/13 05:52:46;;;;;;;9.60;2.00;;;;;;;16.08;54.30;99339.31;5058057;28;20044;-61
2023/12/13 05:55:11;;;;;;;8.32;1.27;;;;;;;16.10;53.78;99342.63;5075590;28;20044;-64
2023/12/13 05:57:37;;;;;;;5.97;1.83;;;;;;;16.10;53.39;99342.63;5057623;28;20539;-63
2023/12/13 06:00:06;;;;;;;2.90;1.42;;;;;;;16.10;53.60;99353.44;5074191;28;20111;-61
2023/12/13 06:02:34;;;;;;;6.50;1.10;;;;;;;16.09;54.22;99349.06;5074196;28;20077;-61
2023/12/13 06:05:00;;;;;;;5.50;1.17;;;;;;;16.08;53.51;99352.81;5074164;28;20504;-61
2023/12/13 06:07:25;;;;;;;12.45;2.00;;;;;;;16.06;53.80;99349.44;5074238;28;20098;-61
2023/12/13 06:09:51;;;;;;;5.38;1.30;;;;;;;16.04;53.46;99359.63;5075142;28;20029;-61
2023/12/13 06:12:17;;;;;;;7.40;2.13;;;;;;;16.05;54.27;99361.31;5057122;28;20024;-61
2023/12/13 06:14:44;;;;;;;4.28;1.58;;;;;;;16.04;53.48;99359.63;5073991;28;20480;-61
2023/12/13 06:17:09;;;;;;;7.78;1.67;;;;;;;16.03;53.98;99360.66;5057096;28;20024;-61
2023/12/13 06:19:34;;;;;;;3.17;1.05;;;;;;;16.03;53.53;99360.66;5074868;28;20020;-61
2023/12/13 06:22:00;;;;;;;5.10;1.15;;;;;;;16.05;53.06;99356.72;5057071;28;20042;-61
2023/12/13 06:24:25;;;;;;;12.23;1.52;;;;;;;16.07;53.62;99370.03;5024281;28;20155;-59
2023/12/13 06:26:51;;;;;;;9.88;1.48;;;;;;;16.07;53.23;99367.34;5020476;28;20101;-59
2023/12/13 06:29:16;;;;;;;6.22;1.23;;;;;;;16.08;54.38;99372.53;5053807;28;20140;-59
2023/12/13 06:31:42;;;;;;;8.55;1.10;;;;;;;16.08;53.27;99372.53;5037331;28;20052;-59
2023/12/13 06:34:07;;;;;;;9.93;1.52;;;;;;;16.04;54.26;99368.56;5020876;28;20029;-58
2023/12/13 06:36:33;;;;;;;3.10;1.30;;;;;;;16.07;53.97;99368.19;5037441;28;20053;-58
2023/12/13 06:39:00;;;;;;;10.65;1.40;;;;;;;16.10;54.30;99365.09;5054722;28;20391;-59
2023/12/13 06:41:26;;;;;;;9.40;1.27;;;;;;;16.10;53.38;99365.09;5037406;28;20033;-58
2023/12/13 06:43:51;;;;;;;4.90;1.75;;;;;;;16.13;53.88;99370.09;5036939;28;20128;-58
2023/12/13 06:46:16;;;;;;;9.80;1.58;;;;;;;16.14;53.67;99366.31;5054878;28;20488;-58
2023/12/13 06:48:42;;;;;;;8.05;1.67;;;;;;;16.17;53.53;99367.78;5036738;28;20370;-58
2023/12/13 06:51:07;;;;;;;8.10;1.27;;;;;;;16.21;53.16;99371.78;5054631;28;20025;-58
2023/12/13 06:53:36;;;;;;;7.97;1.02;;;;;;;16.21;53.87;99366.38;5054506;28;20366;-58
2023/12/13 06:56:01;;;;;;;9.80;1.55;;;;;;;16.21;53.39;99366.38;5036815;28;20029;-58
2023/12/13 06:58:26;;;;;;;6.97;1.10;;;;;;;16.21;53.67;99369.06;5020088;28;20392;-58
2023/12/13 07:00:52;;;;;;;5.65;1.80;;;;;;;16.21;53.71;99367.22;5054411;28;20071;-58
2023/12/13 07:03:17;;;;;;;5.85;1.55;;;;;;;16.20;53.04;99360.13;5036833;28;20115;-58
2023/12/13 07:05:43;;;;;;;3.58;2.15;;;;;;;16.19;52.78;99363.84;5036476;28;20083;-58
2023/12/13 07:08:08;;;;;;;9.93;1.98;;;;;;;16.19;53.70;99363.03;5036419;28;20078;-58
2023/12/13 07:10:33;;;;;;;3.55;1.13;;;;;;;16.22;53.06;99359.91;5019687;28;20083;-58
2023/12/13 07:12:59;;;;;;;10.45;1.73;;;;;;;16.22;53.75;99359.91;5054230;28;20033;-58
2023/12/13 07:15:24;;;;;;;7.65;2.00;;;;;;;16.22;52.93;99365.31;5036084;28;20508;-58
2023/12/13 07:17:50;;;;;;;7.85;1.95;;;;;;;16.25;53.39;99364.91;5053947;28;20159;-58
2023/12/13 07:20:17;;;;;;;6.97;1.48;;;;;;;16.22;53.68;99363.44;5053906;28;20029;-58
2023/12/13 07:22:43;;;;;;;4.25;1.70;;;;;;;16.26;52.69;99372.00;5035969;28;20025;-59
2023/12/13 07:25:09;;;;;;;6.05;1.55;;;;;;;16.25;52.28;99378.44;5036202;28;20409;-58
2023/12/13 07:27:34;;;;;;;5.38;1.15;;;;;;;16.26;53.41;99380.94;5036044;28;20025;-58
2023/12/13 07:29:59;;;;;;;7.72;1.25;;;;;;;16.22;52.77;99374.25;5053760;28;20116;-58
2023/12/13 07:32:25;;;;;;;6.45;1.50;;;;;;;16.25;53.28;99384.66;5035882;28;20032;-58
2023/12/13 07:34:50;;;;;;;5.20;1.73;;;;;;;16.25;52.54;99391.94;5019460;28;20126;-58
2023/12/13 07:37:15;;;;;;;10.23;2.33;;;;;;;16.23;53.43;99380.50;5053882;28;20029;-58
2023/12/13 07:39:42;;;;;;;9.40;1.50;;;;;;;16.26;53.00;99380.09;5053711;28;20036;-58
2023/12/13 07:42:07;;;;;;;8.18;1.83;;;;;;;16.27;52.43;99382.59;5053795;28;20404;-59
2023/12/13 07:44:33;;;;;;;9.90;1.42;;;;;;;16.26;53.19;99385.50;5053555;28;20509;-58
2023/12/13 07:47:02;;;;;;;6.93;2.08;;;;;;;16.27;53.90;99387.19;5036022;28;20488;-59
2023/12/13 07:49:28;;;;;;;10.40;1.60;;;;;;;16.28;52.69;99386.97;5053263;28;20530;-62
2023/12/13 07:51:54;;;;;;;2.33;1.10;;;;;;;16.24;53.60;99383.03;5053306;28;20048;-62
2023/12/13 07:54:20;;;;;;;2.95;1.08;;;;;;;16.32;52.72;99395.53;5035817;28;20029;-62
2023/12/13 07:56:45;;;;;;;6.47;1.73;;;;;;;16.36;52.69;99396.75;5035505;28;20036;-62
2023/12/13 07:59:11;;;;;;;9.02;2.20;;;;;;;16.37;52.16;99389.50;5035253;28;20041;-62
2023/12/13 08:01:37;;;;;;;5.22;1.48;;;;;;;16.37;52.60;99393.03;5035642;28;20094;-63
2023/12/13 08:04:02;;;;;;;10.77;1.65;;;;;;;16.39;52.87;99390.97;5053331;28;20025;-62
2023/12/13 08:06:28;;;;;;;7.20;1.58;;;;;;;16.41;53.46;99396.19;5035180;28;20033;-62
2023/12/13 08:08:54;;;;;;;9.10;1.30;;;;;;;16.43;53.44;99397.66;5035448;28;20515;-62
2023/12/13 08:11:19;;;;;;;7.18;1.42;;;;;;;16.44;53.26;99393.06;5035280;28;20041;-62
2023/12/13 08:13:44;;;;;;;9.73;1.30;;;;;;;16.47;53.54;99393.47;5035392;28;20032;-62
2023/12/13 08:16:10;;;;;;;4.57;0.90;;;;;;;16.52;52.51;99401.00;5034974;28;20117;-62
2023/12/13 08:18:36;;;;;;;3.53;1.33;;;;;;;16.55;53.17;99404.19;5035197;28;20032;-62
2023/12/13 08:21:03;;;;;;;12.50;2.35;;;;;;;16.60;53.15;99399.00;5052835;28;20037;-62
2023/12/13 08:23:29;;;;;;;6.53;1.45;;;;;;;16.64;52.94;99399.41;5052982;28;20112;-62
2023/12/13 08:25:55;;;;;;;3.92;1.50;;;;;;;16.68;53.24;99404.22;5035129;28;20108;-63
2023/12/13 08:28:21;;;;;;;7.97;2.00;;;;;;;16.70;53.05;99409.41;5053064;28;20033;-62
2023/12/13 08:30:47;;;;;;;10.80;2.10;;;;;;;16.75;53.16;99413.16;5053008;28;20108;-63
2023/12/13 08:33:12;;;;;;;8.65;2.88;;;;;;;16.78;52.77;99412.75;5035066;28;20083;-63
2023/12/13 08:35:38;;;;;;;9.80;1.80;;;;;;;16.80;52.46;99416.13;5034852;28;20025;-62
2023/12/13 08:38:04;;;;;;;9.75;1.75;;;;;;;16.81;52.61;99415.06;5035077;28;20127;-62
2023/12/13 08:40:29;;;;;;;8.70;1.55;;;;;;;16.85;52.25;99408.22;5052529;28;20405;-62
2023/12/13 08:42:54;;;;;;;4.90;2.60;;;;;;;16.87;52.41;99402.59;5034967;28;20056;-62
2023/12/13 08:45:20;;;;;;;11.40;1.42;;;;;;;17.00;52.37;99405.31;5034959;28;20036;-62
2023/12/13 08:47:45;;;;;;;10.43;1.30;;;;;;;17.09;52.76;99403.25;5034619;28;20067;-62
2023/12/13 08:50:10;;;;;;;8.75;1.45;;;;;;;17.09;52.25;99414.06;5034702;28;20412;-62
2023/12/13 08:52:36;;;;;;;8.10;1.17;;;;;;;17.16;53.21;99412.22;5034868;28;20037;-62
2023/12/13 08:55:01;;;;;;;9.55;1.38;;;;;;;17.27;52.86;99417.03;5034161;28;20068;-62
2023/12/13 08:57:27;;;;;;;4.18;1.75;;;;;;;17.29;52.80;99421.19;5034692;28;20048;-62
2023/12/13 08:59:52;;;;;;;8.43;1.30;;;;;;;17.29;52.58;99420.34;5052924;28;20033;-58
2023/12/13 09:02:17;;;;;;;11.63;1.88;;;;;;;17.29;52.70;99423.91;5034855;28;20037;-58
2023/12/13 09:04:43;;;;;;;8.88;2.15;;;;;;;17.27;53.12;99417.03;5052656;28;20025;-59
2023/12/13 09:07:08;;;;;;;5.07;1.30;;;;;;;17.29;52.45;99426.59;5035316;28;20119;-58
2023/12/13 09:09:36;;;;;;;4.18;1.70;;;;;;;17.27;52.49;99417.03;5035150;28;20523;-59
2023/12/13 09:12:02;;;;;;;5.45;1.25;;;;;;;17.27;52.90;99433.25;5052890;28;20067;-59
2023/12/13 09:14:27;;;;;;;9.82;1.98;;;;;;;17.23;52.84;99426.59;5035656;28;20048;-58
2023/12/13 09:16:53;;;;;;;6.65;1.20;;;;;;;17.19;53.10;99430.75;5053098;28;20469;-59
2023/12/13 09:19:19;;;;;;;9.23;1.52;;;;;;;17.18;52.59;99426.38;5053358;28;20037;-59
2023/12/13 09:21:44;;;;;;;10.02;1.38;;;;;;;17.19;51.95;99430.75;5018705;28;20520;-60
2023/12/13 09:24:09;;;;;;;6.18;0.93;;;;;;;17.14;52.98;99427.84;5034981;28;20515;-58
2023/12/13 09:26:38;;;;;;;10.77;1.35;;;;;;;17.10;52.67;99437.41;5018275;28;20029;-58
2023/12/13 09:29:04;;;;;;;9.90;1.80;;;;;;;17.11;52.48;99439.91;5035004;28;20051;-58
2023/12/13 09:31:30;;;;;;;4.45;0.95;;;;;;;17.14;52.92;99444.88;5034679;28;20407;-58
2023/12/13 09:33:56;;;;;;;10.13;1.30;;;;;;;17.12;52.09;99446.13;5034705;28;20029;-58
2023/12/13 09:36:21;;;;;;;9.88;1.50;;;;;;;17.14;52.27;99446.78;5052296;28;20025;-58
2023/12/13 09:38:47;;;;;;;6.60;1.00;;;;;;;17.13;52.11;99442.41;5052353;28;20047;-58
2023/12/13 09:41:20;;;;;;;8.65;1.38;;;;;;;17.18;52.36;99450.72;5034653;28;20444;-58
2023/12/13 09:43:46;;;;;;;2.47;1.25;;;;;;;17.14;51.94;99455.72;5034622;28;20025;-58
2023/12/13 09:46:13;;;;;;;6.38;1.40;;;;;;;17.20;52.14;99456.75;5020494;28;20029;-58
2023/12/13 09:48:39;;;;;;;9.13;1.95;;;;;;;17.28;52.53;99451.19;5038006;28;20025;-58
2023/12/13 09:51:05;;;;;;;8.57;1.90;;;;;;;17.40;52.21;99454.94;5038256;28;20031;-58
2023/12/13 09:53:31;;;;;;;6.93;1.23;;;;;;;17.60;51.71;99450.41;5055678;28;20489;-58
2023/12/13 09:55:57;;;;;;;6.45;2.10;;;;;;;17.78;51.70;99458.72;5037727;28;20061;-58
2023/12/13 09:58:22;;;;;;;10.63;1.60;;;;;;;17.96;51.86;99461.63;5037798;28;20029;-58
2023/12/13 10:00:48;;;;;;;7.18;1.58;;;;;;;18.08;51.46;99458.28;5037764;28;20409;-58
2023/12/13 10:03:14;;;;;;;7.25;1.90;;;;;;;18.18;51.94;99464.94;5037617;28;20139;-59
2023/12/13 10:05:41;;;;;;;8.40;1.73;;;;;;;18.19;51.44;99473.91;5055379;28;20086;-58
2023/12/13 10:08:09;;;;;;;12.05;2.50;;;;;;;18.11;51.50;99474.13;5037429;28;20033;-58
2023/12/13 10:10:37;;;;;;;8.52;1.20;;;;;;;18.07;51.87;99478.28;5055433;28;20033;-59
2023/12/13 10:13:02;;;;;;;11.30;2.17;;;;;;;18.02;51.70;99477.06;5055334;28;20429;-58
2023/12/13 10:15:31;;;;;;;4.30;1.20;;;;;;;17.98;51.60;99480.38;5037407;28;20060;-58
2023/12/13 10:17:57;;;;;;;4.05;1.40;;;;;;;17.98;52.06;99474.97;5055313;28;20033;-59
2023/12/13 10:20:23;;;;;;;4.65;1.50;;;;;;;18.07;51.85;99479.13;5037246;28;20056;-58
2023/12/13 10:22:49;;;;;;;11.52;1.85;;;;;;;18.12;51.61;99475.81;5037311;28;20067;-58
2023/12/13 10:25:14;;;;;;;3.75;1.50;;;;;;;18.17;51.33;99473.28;5055002;28;20037;-59
2023/12/13 10:27:41;;;;;;;8.40;1.50;;;;;;;18.18;51.41;99473.06;5037025;28;20029;-58
2023/12/13 10:30:07;;;;;;;10.10;1.20;;;;;;;18.20;51.17;99478.28;5037391;28;20045;-58
2023/12/13 10:32:33;;;;;;;11.80;1.50;;;;;;;18.21;51.24;99474.50;5054793;28;20041;-58
2023/12/13 10:34:59;;;;;;;9.25;1.38;;;;;;;18.19;51.95;99476.59;5036869;28;20063;-59
2023/12/13 10:37:27;;;;;;;12.90;1.83;;;;;;;18.15;51.69;99478.91;5036945;28;20055;-59
2023/12/13 10:39:56;;;;;;;8.05;1.13;;;;;;;18.10;51.43;99472.44;5037253;28;20400;-58
2023/12/13 10:42:24;;;;;;;10.27;1.42;;;;;;;18.06;51.57;99482.06;5054627;28;20037;-58
2023/12/13 10:44:50;;;;;;;12.63;2.03;;;;;;;18.00;51.43;99479.16;5036884;28;20029;-58
2023/12/13 10:47:16;;;;;;;5.93;1.35;;;;;;;17.91;51.28;99476.84;5036774;28;20029;-59
2023/12/13 10:49:45;;;;;;;4.57;1.17;;;;;;;17.87;51.96;99470.16;5020154;28;20045;-58
2023/12/13 10:52:12;;;;;;;11.85;1.23;;;;;;;17.82;52.38;99473.53;5037163;28;20098;-58
2023/12/13 10:54:38;;;;;;;5.70;1.40;;;;;;;17.80;51.99;99472.91;5036830;28;20105;-58
2023/12/13 10:57:04;;;;;;;10.05;1.55;;;;;;;17.81;51.92;99474.56;5035809;28;20056;-58
2023/12/13 10:59:30;;;;;;;3.10;0.90;;;;;;;17.86;51.92;99472.06;5036551;28;20382;-59
2023/12/13 11:01:56;;;;;;;9.07;1.40;;;;;;;17.92;51.79;99487.47;5020127;28;20086;-58
2023/12/13 11:04:22;;;;;;;4.47;1.20;;;;;;;17.95;51.86;99480.81;5020030;28;20497;-58
2023/12/13 11:06:48;;;;;;;8.82;1.50;;;;;;;17.90;51.44;99467.88;5036431;28;20059;-58
2023/12/13 11:09:15;;;;;;;5.00;1.48;;;;;;;17.98;51.77;99477.66;5054409;28;20025;-59
2023/12/13 11:11:42;;;;;;;12.50;1.30;;;;;;;17.97;51.10;99474.16;5036433;28;20033;-58
2023/12/13 11:14:09;;;;;;;8.07;1.40;;;;;;;17.96;51.39;99486.03;5036584;28;20033;-58
2023/12/13 11:17:00;;;;;;;5.35;1.33;;;;;;;18.00;51.17;99481.03;5036318;28;20029;-59
2023/12/13 11:19:27;;;;;;;6.05;0.90;;;;;;;18.01;51.27;99475.38;5015958;28;20037;-58
2023/12/13 11:21:52;;;;;;;6.70;1.38;;;;;;;18.02;51.30;99485.19;5019922;28;20439;-59
2023/12/13 11:24:22;;;;;;;6.68;0.90;;;;;;;17.98;51.49;99483.09;5036283;28;20029;-58